sensor_id;sensor_type;location;lat;lon;timestamp;P1;durP1;ratioP1;P2;durP2;ratioP2
6973;SDS011;3527;52.376;8.990;2023-07-09T00:01:16;9.70;;;7.83;;
6973;SDS011;3527;52.376;8.990;2023-07-09T00:03:44;10.77;;;7.40;;
6973;SDS011;3527;52.376;8.990;2023-07-09T00:06:15;8.80;;;6.90;;
6973;SDS011;3527;52.376;8.990;2023-07-09T00:08:43;9.80;;;7.00;;
6973;SDS011;3527;52.376;8.990;2023-07-09T00:11:13;10.73;;;7.07;;
6973;SDS011;3527;52.376;8.990;2023-07-09T00:13:41;9.20;;;7.40;;
6973;SDS011;3527;52.376;8.990;2023-07-09T00:16:12;10.17;;;7.13;;
6973;SDS011;3527;52.376;8.990;2023-07-09T00:18:43;9.13;;;6.73;;
6973;SDS011;3527;52.376;8.990;2023-07-09T00:21:10;8.27;;;7.00;;
6973;SDS011;3527;52.376;8.990;2023-07-09T00:23:37;8.57;;;7.00;;
6973;SDS011;3527;52.376;8.990;2023-07-09T00:26:11;9.17;;;7.30;;
6973;SDS011;3527;52.376;8.990;2023-07-09T00:28:40;9.13;;;7.00;;
6973;SDS011;3527;52.376;8.990;2023-07-09T00:31:13;10.13;;;7.07;;
6973;SDS011;3527;52.376;8.990;2023-07-09T00:33:42;8.03;;;7.00;;
6973;SDS011;3527;52.376;8.990;2023-07-09T00:36:16;11.13;;;7.10;;
6973;SDS011;3527;52.376;8.990;2023-07-09T00:38:46;8.60;;;6.47;;
6973;SDS011;3527;52.376;8.990;2023-07-09T00:41:16;10.40;;;6.53;;
6973;SDS011;3527;52.376;8.990;2023-07-09T00:43:49;9.37;;;7.37;;
6973;SDS011;3527;52.376;8.990;2023-07-09T00:48:47;7.33;;;6.60;;
6973;SDS011;3527;52.376;8.990;2023-07-09T00:51:20;9.17;;;7.10;;
6973;SDS011;3527;52.376;8.990;2023-07-09T00:53:49;8.20;;;6.70;;
6973;SDS011;3527;52.376;8.990;2023-07-09T00:56:39;8.77;;;6.97;;
6973;SDS011;3527;52.376;8.990;2023-07-09T00:59:09;8.10;;;6.77;;
6973;SDS011;3527;52.376;8.990;2023-07-09T01:01:44;10.17;;;6.67;;
6973;SDS011;3527;52.376;8.990;2023-07-09T01:04:14;8.53;;;6.63;;
6973;SDS011;3527;52.376;8.990;2023-07-09T01:06:44;8.63;;;6.83;;
6973;SDS011;3527;52.376;8.990;2023-07-09T01:09:14;8.47;;;6.70;;
6973;SDS011;3527;52.376;8.990;2023-07-09T01:11:41;10.97;;;7.03;;
6973;SDS011;3527;52.376;8.990;2023-07-09T01:14:09;9.07;;;7.00;;
6973;SDS011;3527;52.376;8.990;2023-07-09T01:16:42;7.93;;;6.40;;
6973;SDS011;3527;52.376;8.990;2023-07-09T01:19:13;7.50;;;6.70;;
6973;SDS011;3527;52.376;8.990;2023-07-09T01:21:43;7.90;;;6.77;;
6973;SDS011;3527;52.376;8.990;2023-07-09T01:24:13;7.53;;;6.73;;
6973;SDS011;3527;52.376;8.990;2023-07-09T01:26:46;10.37;;;7.63;;
6973;SDS011;3527;52.376;8.990;2023-07-09T01:29:13;7.70;;;6.87;;
6973;SDS011;3527;52.376;8.990;2023-07-09T01:31:39;8.90;;;7.17;;
6973;SDS011;3527;52.376;8.990;2023-07-09T01:34:06;8.07;;;7.10;;
6973;SDS011;3527;52.376;8.990;2023-07-09T01:36:35;10.43;;;7.43;;
6973;SDS011;3527;52.376;8.990;2023-07-09T01:39:06;8.93;;;7.07;;
6973;SDS011;3527;52.376;8.990;2023-07-09T01:41:33;7.70;;;6.53;;
6973;SDS011;3527;52.376;8.990;2023-07-09T01:44:00;8.57;;;6.83;;
6973;SDS011;3527;52.376;8.990;2023-07-09T01:46:27;7.50;;;6.50;;
6973;SDS011;3527;52.376;8.990;2023-07-09T01:48:54;8.80;;;6.80;;
6973;SDS011;3527;52.376;8.990;2023-07-09T01:51:21;9.53;;;6.70;;
6973;SDS011;3527;52.376;8.990;2023-07-09T01:53:50;9.20;;;7.00;;
6973;SDS011;3527;52.376;8.990;2023-07-09T01:56:17;7.20;;;6.43;;
6973;SDS011;3527;52.376;8.990;2023-07-09T01:58:44;9.47;;;6.80;;
6973;SDS011;3527;52.376;8.990;2023-07-09T02:01:11;7.43;;;6.70;;
6973;SDS011;3527;52.376;8.990;2023-07-09T02:03:38;10.40;;;6.90;;
6973;SDS011;3527;52.376;8.990;2023-07-09T02:06:05;9.07;;;6.27;;
6973;SDS011;3527;52.376;8.990;2023-07-09T02:08:37;8.87;;;6.43;;
6973;SDS011;3527;52.376;8.990;2023-07-09T02:11:04;8.80;;;6.70;;
6973;SDS011;3527;52.376;8.990;2023-07-09T02:13:31;9.17;;;6.77;;
6973;SDS011;3527;52.376;8.990;2023-07-09T02:15:58;9.73;;;7.40;;
6973;SDS011;3527;52.376;8.990;2023-07-09T02:18:25;7.43;;;6.63;;
6973;SDS011;3527;52.376;8.990;2023-07-09T02:20:52;8.27;;;6.50;;
6973;SDS011;3527;52.376;8.990;2023-07-09T02:23:19;9.83;;;6.80;;
6973;SDS011;3527;52.376;8.990;2023-07-09T02:25:46;7.10;;;6.23;;
6973;SDS011;3527;52.376;8.990;2023-07-09T02:28:13;9.00;;;7.03;;
6973;SDS011;3527;52.376;8.990;2023-07-09T02:30:39;8.83;;;6.77;;
6973;SDS011;3527;52.376;8.990;2023-07-09T02:33:06;9.63;;;6.70;;
6973;SDS011;3527;52.376;8.990;2023-07-09T02:35:33;7.43;;;6.57;;
6973;SDS011;3527;52.376;8.990;2023-07-09T02:38:02;11.10;;;7.30;;
6973;SDS011;3527;52.376;8.990;2023-07-09T02:40:29;9.40;;;6.60;;
6973;SDS011;3527;52.376;8.990;2023-07-09T02:42:58;7.73;;;6.87;;
6973;SDS011;3527;52.376;8.990;2023-07-09T02:45:25;9.27;;;6.83;;
6973;SDS011;3527;52.376;8.990;2023-07-09T02:47:51;9.07;;;7.17;;
6973;SDS011;3527;52.376;8.990;2023-07-09T02:50:18;7.50;;;6.33;;
6973;SDS011;3527;52.376;8.990;2023-07-09T02:52:45;8.10;;;6.80;;
6973;SDS011;3527;52.376;8.990;2023-07-09T02:55:12;10.00;;;7.10;;
6973;SDS011;3527;52.376;8.990;2023-07-09T02:57:39;9.73;;;7.30;;
6973;SDS011;3527;52.376;8.990;2023-07-09T03:00:06;7.60;;;6.80;;
6973;SDS011;3527;52.376;8.990;2023-07-09T03:02:34;8.10;;;6.80;;
6973;SDS011;3527;52.376;8.990;2023-07-09T03:05:01;8.07;;;6.70;;
6973;SDS011;3527;52.376;8.990;2023-07-09T03:07:28;8.13;;;6.87;;
6973;SDS011;3527;52.376;8.990;2023-07-09T03:09:54;9.13;;;6.90;;
6973;SDS011;3527;52.376;8.990;2023-07-09T03:12:21;8.87;;;6.90;;
6973;SDS011;3527;52.376;8.990;2023-07-09T03:14:48;7.97;;;6.67;;
6973;SDS011;3527;52.376;8.990;2023-07-09T03:17:15;8.90;;;7.30;;
6973;SDS011;3527;52.376;8.990;2023-07-09T03:19:45;8.63;;;6.67;;
6973;SDS011;3527;52.376;8.990;2023-07-09T03:22:12;8.27;;;6.63;;
6973;SDS011;3527;52.376;8.990;2023-07-09T03:24:38;7.90;;;6.93;;
6973;SDS011;3527;52.376;8.990;2023-07-09T03:27:05;9.03;;;6.97;;
6973;SDS011;3527;52.376;8.990;2023-07-09T03:29:33;12.90;;;7.27;;
6973;SDS011;3527;52.376;8.990;2023-07-09T03:31:59;9.13;;;7.20;;
6973;SDS011;3527;52.376;8.990;2023-07-09T03:34:26;10.00;;;7.33;;
6973;SDS011;3527;52.376;8.990;2023-07-09T03:36:53;8.53;;;7.20;;
6973;SDS011;3527;52.376;8.990;2023-07-09T03:39:20;9.67;;;7.33;;
6973;SDS011;3527;52.376;8.990;2023-07-09T03:41:47;10.93;;;7.13;;
6973;SDS011;3527;52.376;8.990;2023-07-09T03:44:13;8.30;;;7.17;;
6973;SDS011;3527;52.376;8.990;2023-07-09T03:46:40;10.63;;;7.43;;
6973;SDS011;3527;52.376;8.990;2023-07-09T03:49:07;11.23;;;7.50;;
6973;SDS011;3527;52.376;8.990;2023-07-09T03:51:34;9.40;;;7.10;;
6973;SDS011;3527;52.376;8.990;2023-07-09T03:54:04;7.83;;;6.43;;
6973;SDS011;3527;52.376;8.990;2023-07-09T03:56:33;9.30;;;7.20;;
6973;SDS011;3527;52.376;8.990;2023-07-09T04:01:57;8.03;;;6.90;;
6973;SDS011;3527;52.376;8.990;2023-07-09T04:04:24;9.43;;;7.63;;
6973;SDS011;3527;52.376;8.990;2023-07-09T04:06:51;8.43;;;7.37;;
6973;SDS011;3527;52.376;8.990;2023-07-09T04:09:18;8.43;;;7.53;;
6973;SDS011;3527;52.376;8.990;2023-07-09T04:11:45;10.07;;;7.10;;
6973;SDS011;3527;52.376;8.990;2023-07-09T04:14:12;7.77;;;6.80;;
6973;SDS011;3527;52.376;8.990;2023-07-09T04:16:59;11.43;;;7.00;;
6973;SDS011;3527;52.376;8.990;2023-07-09T04:19:46;9.90;;;7.00;;
6973;SDS011;3527;52.376;8.990;2023-07-09T04:22:31;9.20;;;6.43;;
6973;SDS011;3527;52.376;8.990;2023-07-09T04:25:10;8.27;;;6.53;;
6973;SDS011;3527;52.376;8.990;2023-07-09T04:27:58;8.03;;;6.97;;
6973;SDS011;3527;52.376;8.990;2023-07-09T04:30:31;8.77;;;7.03;;
6973;SDS011;3527;52.376;8.990;2023-07-09T04:32:59;9.17;;;6.50;;
6973;SDS011;3527;52.376;8.990;2023-07-09T04:35:26;7.53;;;6.43;;
6973;SDS011;3527;52.376;8.990;2023-07-09T04:37:53;10.17;;;7.17;;
6973;SDS011;3527;52.376;8.990;2023-07-09T04:40:19;8.17;;;6.97;;
6973;SDS011;3527;52.376;8.990;2023-07-09T04:42:47;8.60;;;6.67;;
6973;SDS011;3527;52.376;8.990;2023-07-09T04:45:14;9.33;;;7.07;;
6973;SDS011;3527;52.376;8.990;2023-07-09T04:47:41;8.43;;;6.83;;
6973;SDS011;3527;52.376;8.990;2023-07-09T04:50:08;11.43;;;6.57;;
6973;SDS011;3527;52.376;8.990;2023-07-09T04:52:37;7.70;;;6.37;;
6973;SDS011;3527;52.376;8.990;2023-07-09T04:55:04;8.63;;;6.33;;
6973;SDS011;3527;52.376;8.990;2023-07-09T04:57:31;8.27;;;6.50;;
6973;SDS011;3527;52.376;8.990;2023-07-09T04:59:58;9.80;;;6.63;;
6973;SDS011;3527;52.376;8.990;2023-07-09T05:02:25;10.83;;;6.10;;
6973;SDS011;3527;52.376;8.990;2023-07-09T05:04:53;9.03;;;6.97;;
6973;SDS011;3527;52.376;8.990;2023-07-09T05:07:20;8.97;;;7.13;;
6973;SDS011;3527;52.376;8.990;2023-07-09T05:09:47;9.73;;;6.80;;
6973;SDS011;3527;52.376;8.990;2023-07-09T05:12:14;7.43;;;6.33;;
6973;SDS011;3527;52.376;8.990;2023-07-09T05:14:41;7.50;;;6.57;;
6973;SDS011;3527;52.376;8.990;2023-07-09T05:17:08;12.73;;;7.00;;
6973;SDS011;3527;52.376;8.990;2023-07-09T05:19:35;7.67;;;6.37;;
6973;SDS011;3527;52.376;8.990;2023-07-09T05:22:02;8.83;;;6.27;;
6973;SDS011;3527;52.376;8.990;2023-07-09T05:24:29;9.97;;;7.07;;
6973;SDS011;3527;52.376;8.990;2023-07-09T05:26:56;9.57;;;6.87;;
6973;SDS011;3527;52.376;8.990;2023-07-09T05:29:22;8.40;;;6.37;;
6973;SDS011;3527;52.376;8.990;2023-07-09T05:31:51;8.23;;;6.10;;
6973;SDS011;3527;52.376;8.990;2023-07-09T05:34:18;10.63;;;7.33;;
6973;SDS011;3527;52.376;8.990;2023-07-09T05:36:45;7.77;;;6.43;;
6973;SDS011;3527;52.376;8.990;2023-07-09T05:39:13;10.30;;;6.57;;
6973;SDS011;3527;52.376;8.990;2023-07-09T05:41:39;8.50;;;6.47;;
6973;SDS011;3527;52.376;8.990;2023-07-09T05:44:06;6.90;;;5.70;;
6973;SDS011;3527;52.376;8.990;2023-07-09T05:46:33;9.53;;;6.80;;
6973;SDS011;3527;52.376;8.990;2023-07-09T05:49:03;9.73;;;6.47;;
6973;SDS011;3527;52.376;8.990;2023-07-09T05:51:31;8.47;;;5.87;;
6973;SDS011;3527;52.376;8.990;2023-07-09T05:53:58;7.83;;;6.10;;
6973;SDS011;3527;52.376;8.990;2023-07-09T05:56:25;7.37;;;6.20;;
6973;SDS011;3527;52.376;8.990;2023-07-09T05:58:53;7.55;;;6.30;;
6973;SDS011;3527;52.376;8.990;2023-07-09T06:01:19;6.83;;;6.00;;
6973;SDS011;3527;52.376;8.990;2023-07-09T06:03:47;9.13;;;6.40;;
6973;SDS011;3527;52.376;8.990;2023-07-09T06:06:14;9.77;;;7.03;;
6973;SDS011;3527;52.376;8.990;2023-07-09T06:08:41;8.35;;;6.20;;
6973;SDS011;3527;52.376;8.990;2023-07-09T06:11:08;7.90;;;5.88;;
6973;SDS011;3527;52.376;8.990;2023-07-09T06:13:35;9.57;;;6.33;;
6973;SDS011;3527;52.376;8.990;2023-07-09T06:16:02;8.43;;;5.97;;
6973;SDS011;3527;52.376;8.990;2023-07-09T06:18:30;9.07;;;6.83;;
6973;SDS011;3527;52.376;8.990;2023-07-09T06:20:58;7.50;;;6.20;;
6973;SDS011;3527;52.376;8.990;2023-07-09T06:23:26;8.25;;;5.85;;
6973;SDS011;3527;52.376;8.990;2023-07-09T06:25:53;7.53;;;6.15;;
6973;SDS011;3527;52.376;8.990;2023-07-09T06:28:21;7.40;;;5.97;;
6973;SDS011;3527;52.376;8.990;2023-07-09T06:30:49;7.57;;;6.20;;
6973;SDS011;3527;52.376;8.990;2023-07-09T06:33:17;7.85;;;5.70;;
6973;SDS011;3527;52.376;8.990;2023-07-09T06:36:06;8.90;;;6.22;;
6973;SDS011;3527;52.376;8.990;2023-07-09T06:38:33;6.57;;;5.72;;
6973;SDS011;3527;52.376;8.990;2023-07-09T06:41:00;7.50;;;5.40;;
6973;SDS011;3527;52.376;8.990;2023-07-09T06:43:28;7.57;;;5.97;;
6973;SDS011;3527;52.376;8.990;2023-07-09T06:46:19;9.07;;;5.45;;
6973;SDS011;3527;52.376;8.990;2023-07-09T06:50:02;7.15;;;5.55;;
6973;SDS011;3527;52.376;8.990;2023-07-09T06:52:30;7.28;;;5.57;;
6973;SDS011;3527;52.376;8.990;2023-07-09T06:54:57;6.50;;;5.35;;
6973;SDS011;3527;52.376;8.990;2023-07-09T06:57:24;8.55;;;5.70;;
6973;SDS011;3527;52.376;8.990;2023-07-09T06:59:51;7.70;;;5.70;;
6973;SDS011;3527;52.376;8.990;2023-07-09T07:02:19;8.05;;;5.47;;
6973;SDS011;3527;52.376;8.990;2023-07-09T07:04:46;6.38;;;5.30;;
6973;SDS011;3527;52.376;8.990;2023-07-09T07:07:13;7.40;;;5.30;;
6973;SDS011;3527;52.376;8.990;2023-07-09T07:09:40;6.93;;;5.38;;
6973;SDS011;3527;52.376;8.990;2023-07-09T07:12:28;7.45;;;5.93;;
6973;SDS011;3527;52.376;8.990;2023-07-09T07:14:56;7.07;;;5.63;;
6973;SDS011;3527;52.376;8.990;2023-07-09T07:17:23;8.25;;;5.45;;
6973;SDS011;3527;52.376;8.990;2023-07-09T07:19:50;7.03;;;5.75;;
6973;SDS011;3527;52.376;8.990;2023-07-09T07:22:18;6.97;;;5.43;;
6973;SDS011;3527;52.376;8.990;2023-07-09T07:24:48;7.50;;;5.65;;
6973;SDS011;3527;52.376;8.990;2023-07-09T07:27:15;8.20;;;5.35;;
6973;SDS011;3527;52.376;8.990;2023-07-09T07:29:42;9.30;;;5.57;;
6973;SDS011;3527;52.376;8.990;2023-07-09T07:32:09;6.40;;;5.68;;
6973;SDS011;3527;52.376;8.990;2023-07-09T07:34:36;6.70;;;5.28;;
6973;SDS011;3527;52.376;8.990;2023-07-09T07:37:03;8.32;;;5.38;;
6973;SDS011;3527;52.376;8.990;2023-07-09T07:39:31;7.15;;;5.70;;
6973;SDS011;3527;52.376;8.990;2023-07-09T07:42:30;7.95;;;5.55;;
6973;SDS011;3527;52.376;8.990;2023-07-09T07:45:13;8.30;;;5.30;;
6973;SDS011;3527;52.376;8.990;2023-07-09T07:48:00;6.63;;;5.35;;
6973;SDS011;3527;52.376;8.990;2023-07-09T07:50:28;5.90;;;5.30;;
6973;SDS011;3527;52.376;8.990;2023-07-09T07:52:55;9.13;;;6.00;;
6973;SDS011;3527;52.376;8.990;2023-07-09T07:55:22;5.70;;;4.78;;
6973;SDS011;3527;52.376;8.990;2023-07-09T07:57:49;6.13;;;5.45;;
6973;SDS011;3527;52.376;8.990;2023-07-09T08:00:36;7.55;;;5.90;;
6973;SDS011;3527;52.376;8.990;2023-07-09T08:03:23;5.63;;;5.07;;
6973;SDS011;3527;52.376;8.990;2023-07-09T08:05:50;6.50;;;5.15;;
6973;SDS011;3527;52.376;8.990;2023-07-09T08:08:18;6.80;;;5.43;;
6973;SDS011;3527;52.376;8.990;2023-07-09T08:13:48;6.93;;;5.18;;
6973;SDS011;3527;52.376;8.990;2023-07-09T08:16:35;7.65;;;5.28;;
6973;SDS011;3527;52.376;8.990;2023-07-09T08:19:03;6.43;;;5.15;;
6973;SDS011;3527;52.376;8.990;2023-07-09T08:21:30;6.78;;;4.90;;
6973;SDS011;3527;52.376;8.990;2023-07-09T08:23:57;8.27;;;5.40;;
6973;SDS011;3527;52.376;8.990;2023-07-09T08:29:23;7.07;;;5.95;;
6973;SDS011;3527;52.376;8.990;2023-07-09T08:31:50;6.38;;;5.25;;
6973;SDS011;3527;52.376;8.990;2023-07-09T08:34:17;6.97;;;5.22;;
6973;SDS011;3527;52.376;8.990;2023-07-09T08:36:54;8.32;;;5.30;;
6973;SDS011;3527;52.376;8.990;2023-07-09T08:39:22;6.50;;;4.88;;
6973;SDS011;3527;52.376;8.990;2023-07-09T08:41:52;7.45;;;5.32;;
6973;SDS011;3527;52.376;8.990;2023-07-09T08:44:40;7.20;;;5.85;;
6973;SDS011;3527;52.376;8.990;2023-07-09T08:50:31;6.05;;;5.45;;
6973;SDS011;3527;52.376;8.990;2023-07-09T08:53:08;6.28;;;5.20;;
6973;SDS011;3527;52.376;8.990;2023-07-09T08:55:46;10.68;;;5.15;;
6973;SDS011;3527;52.376;8.990;2023-07-09T08:58:22;7.35;;;5.22;;
6973;SDS011;3527;52.376;8.990;2023-07-09T09:00:56;7.07;;;5.30;;
6973;SDS011;3527;52.376;8.990;2023-07-09T09:06:27;7.68;;;5.28;;
6973;SDS011;3527;52.376;8.990;2023-07-09T09:11:43;6.25;;;5.50;;
6973;SDS011;3527;52.376;8.990;2023-07-09T09:14:42;6.65;;;5.43;;
6973;SDS011;3527;52.376;8.990;2023-07-09T09:17:13;7.70;;;5.68;;
6973;SDS011;3527;52.376;8.990;2023-07-09T09:22:17;6.18;;;5.20;;
6973;SDS011;3527;52.376;8.990;2023-07-09T09:25:04;6.60;;;5.20;;
6973;SDS011;3527;52.376;8.990;2023-07-09T09:27:46;6.55;;;4.97;;
6973;SDS011;3527;52.376;8.990;2023-07-09T09:30:15;7.82;;;5.32;;
6973;SDS011;3527;52.376;8.990;2023-07-09T09:33:00;4.95;;;4.45;;
6973;SDS011;3527;52.376;8.990;2023-07-09T09:35:38;7.07;;;5.53;;
6973;SDS011;3527;52.376;8.990;2023-07-09T09:38:12;6.07;;;5.47;;
6973;SDS011;3527;52.376;8.990;2023-07-09T09:40:46;7.30;;;5.60;;
6973;SDS011;3527;52.376;8.990;2023-07-09T09:43:19;6.68;;;5.15;;
6973;SDS011;3527;52.376;8.990;2023-07-09T09:45:49;6.57;;;5.38;;
6973;SDS011;3527;52.376;8.990;2023-07-09T09:48:19;6.00;;;5.13;;
6973;SDS011;3527;52.376;8.990;2023-07-09T09:50:57;7.40;;;5.38;;
6973;SDS011;3527;52.376;8.990;2023-07-09T09:53:29;7.75;;;5.15;;
6973;SDS011;3527;52.376;8.990;2023-07-09T09:56:03;7.43;;;5.43;;
6973;SDS011;3527;52.376;8.990;2023-07-09T09:58:32;6.45;;;5.63;;
6973;SDS011;3527;52.376;8.990;2023-07-09T10:00:59;5.68;;;5.07;;
6973;SDS011;3527;52.376;8.990;2023-07-09T10:03:33;5.68;;;5.00;;
6973;SDS011;3527;52.376;8.990;2023-07-09T10:06:26;6.35;;;5.55;;
6973;SDS011;3527;52.376;8.990;2023-07-09T10:11:46;5.63;;;4.90;;
6973;SDS011;3527;52.376;8.990;2023-07-09T10:14:24;7.60;;;5.88;;
6973;SDS011;3527;52.376;8.990;2023-07-09T10:17:22;6.88;;;5.78;;
6973;SDS011;3527;52.376;8.990;2023-07-09T10:19:57;5.75;;;5.22;;
6973;SDS011;3527;52.376;8.990;2023-07-09T10:31:00;5.50;;;5.00;;
6973;SDS011;3527;52.376;8.990;2023-07-09T10:39:47;9.20;;;5.35;;
6973;SDS011;3527;52.376;8.990;2023-07-09T10:42:26;6.10;;;5.45;;
6973;SDS011;3527;52.376;8.990;2023-07-09T10:45:01;8.13;;;5.18;;
6973;SDS011;3527;52.376;8.990;2023-07-09T10:47:35;6.38;;;5.28;;
6973;SDS011;3527;52.376;8.990;2023-07-09T10:50:09;6.43;;;5.80;;
6973;SDS011;3527;52.376;8.990;2023-07-09T10:53:00;9.68;;;5.72;;
6973;SDS011;3527;52.376;8.990;2023-07-09T10:58:31;6.60;;;5.70;;
6973;SDS011;3527;52.376;8.990;2023-07-09T11:01:03;7.63;;;6.10;;
6973;SDS011;3527;52.376;8.990;2023-07-09T11:03:40;7.10;;;5.30;;
6973;SDS011;3527;52.376;8.990;2023-07-09T11:06:17;8.25;;;5.60;;
6973;SDS011;3527;52.376;8.990;2023-07-09T11:08:49;6.63;;;5.90;;
6973;SDS011;3527;52.376;8.990;2023-07-09T11:14:01;7.80;;;5.85;;
6973;SDS011;3527;52.376;8.990;2023-07-09T11:16:39;6.18;;;5.47;;
6973;SDS011;3527;52.376;8.990;2023-07-09T11:19:16;7.22;;;5.40;;
6973;SDS011;3527;52.376;8.990;2023-07-09T11:22:02;8.45;;;5.55;;
6973;SDS011;3527;52.376;8.990;2023-07-09T11:27:18;7.05;;;5.88;;
6973;SDS011;3527;52.376;8.990;2023-07-09T11:29:57;6.90;;;5.85;;
6973;SDS011;3527;52.376;8.990;2023-07-09T11:32:30;6.20;;;5.60;;
6973;SDS011;3527;52.376;8.990;2023-07-09T11:35:07;7.32;;;5.07;;
6973;SDS011;3527;52.376;8.990;2023-07-09T11:37:44;6.63;;;5.80;;
6973;SDS011;3527;52.376;8.990;2023-07-09T11:40:13;7.53;;;5.60;;
6973;SDS011;3527;52.376;8.990;2023-07-09T11:45:30;7.10;;;5.47;;
6973;SDS011;3527;52.376;8.990;2023-07-09T11:48:33;8.18;;;5.93;;
6973;SDS011;3527;52.376;8.990;2023-07-09T11:50:54;6.00;;;5.40;;
6973;SDS011;3527;52.376;8.990;2023-07-09T11:55:52;6.93;;;5.82;;
6973;SDS011;3527;52.376;8.990;2023-07-09T11:58:19;9.05;;;6.00;;
6973;SDS011;3527;52.376;8.990;2023-07-09T12:00:49;6.68;;;5.35;;
6973;SDS011;3527;52.376;8.990;2023-07-09T12:03:28;7.32;;;5.57;;
6973;SDS011;3527;52.376;8.990;2023-07-09T12:06:07;7.85;;;6.07;;
6973;SDS011;3527;52.376;8.990;2023-07-09T12:08:44;7.00;;;5.57;;
6973;SDS011;3527;52.376;8.990;2023-07-09T12:11:32;6.90;;;5.78;;
6973;SDS011;3527;52.376;8.990;2023-07-09T12:14:20;6.53;;;5.85;;
6973;SDS011;3527;52.376;8.990;2023-07-09T12:16:50;6.68;;;5.80;;
6973;SDS011;3527;52.376;8.990;2023-07-09T12:19:20;6.07;;;5.47;;
6973;SDS011;3527;52.376;8.990;2023-07-09T12:21:53;8.73;;;6.00;;
6973;SDS011;3527;52.376;8.990;2023-07-09T12:24:31;6.72;;;6.03;;
6973;SDS011;3527;52.376;8.990;2023-07-09T12:27:04;8.20;;;5.72;;
6973;SDS011;3527;52.376;8.990;2023-07-09T12:29:45;7.00;;;6.30;;
6973;SDS011;3527;52.376;8.990;2023-07-09T12:32:13;10.57;;;5.78;;
6973;SDS011;3527;52.376;8.990;2023-07-09T12:34:46;6.70;;;5.80;;
6973;SDS011;3527;52.376;8.990;2023-07-09T12:37:14;7.18;;;5.28;;
6973;SDS011;3527;52.376;8.990;2023-07-09T12:39:42;7.03;;;6.15;;
6973;SDS011;3527;52.376;8.990;2023-07-09T12:42:17;7.18;;;5.85;;
6973;SDS011;3527;52.376;8.990;2023-07-09T12:44:46;7.47;;;5.88;;
6973;SDS011;3527;52.376;8.990;2023-07-09T12:47:15;8.90;;;5.75;;
6973;SDS011;3527;52.376;8.990;2023-07-09T12:49:44;7.25;;;5.90;;
6973;SDS011;3527;52.376;8.990;2023-07-09T12:54:52;6.43;;;5.57;;
6973;SDS011;3527;52.376;8.990;2023-07-09T12:57:23;7.60;;;5.57;;
6973;SDS011;3527;52.376;8.990;2023-07-09T12:59:53;7.18;;;5.30;;
6973;SDS011;3527;52.376;8.990;2023-07-09T13:04:59;7.47;;;5.53;;
6973;SDS011;3527;52.376;8.990;2023-07-09T13:07:38;6.75;;;5.00;;
6973;SDS011;3527;52.376;8.990;2023-07-09T13:10:16;6.18;;;5.20;;
6973;SDS011;3527;52.376;8.990;2023-07-09T13:12:46;6.32;;;5.22;;
6973;SDS011;3527;52.376;8.990;2023-07-09T13:15:21;7.38;;;5.78;;
6973;SDS011;3527;52.376;8.990;2023-07-09T13:17:56;8.40;;;4.80;;
6973;SDS011;3527;52.376;8.990;2023-07-09T13:20:24;5.78;;;5.00;;
6973;SDS011;3527;52.376;8.990;2023-07-09T13:22:51;7.00;;;5.18;;
6973;SDS011;3527;52.376;8.990;2023-07-09T13:25:18;7.72;;;5.63;;
6973;SDS011;3527;52.376;8.990;2023-07-09T13:28:02;6.47;;;4.75;;
6973;SDS011;3527;52.376;8.990;2023-07-09T13:30:29;7.63;;;5.10;;
6973;SDS011;3527;52.376;8.990;2023-07-09T13:32:58;6.50;;;5.22;;
6973;SDS011;3527;52.376;8.990;2023-07-09T13:35:25;7.10;;;5.13;;
6973;SDS011;3527;52.376;8.990;2023-07-09T13:37:52;8.55;;;4.93;;
6973;SDS011;3527;52.376;8.990;2023-07-09T13:40:19;5.88;;;4.72;;
6973;SDS011;3527;52.376;8.990;2023-07-09T13:42:46;8.80;;;5.60;;
6973;SDS011;3527;52.376;8.990;2023-07-09T13:45:22;5.55;;;4.80;;
6973;SDS011;3527;52.376;8.990;2023-07-09T13:47:51;7.03;;;4.97;;
6973;SDS011;3527;52.376;8.990;2023-07-09T13:50:19;5.85;;;4.60;;
6973;SDS011;3527;52.376;8.990;2023-07-09T13:52:46;9.77;;;5.07;;
6973;SDS011;3527;52.376;8.990;2023-07-09T13:55:18;6.40;;;4.93;;
6973;SDS011;3527;52.376;8.990;2023-07-09T13:57:47;5.30;;;4.68;;
6973;SDS011;3527;52.376;8.990;2023-07-09T14:00:15;6.80;;;5.35;;
6973;SDS011;3527;52.376;8.990;2023-07-09T14:02:43;8.15;;;5.82;;
6973;SDS011;3527;52.376;8.990;2023-07-09T14:05:11;7.80;;;5.40;;
6973;SDS011;3527;52.376;8.990;2023-07-09T14:07:40;7.30;;;5.50;;
6973;SDS011;3527;52.376;8.990;2023-07-09T14:10:13;7.75;;;5.32;;
6973;SDS011;3527;52.376;8.990;2023-07-09T14:12:44;9.25;;;5.68;;
6973;SDS011;3527;52.376;8.990;2023-07-09T14:15:17;8.15;;;5.82;;
6973;SDS011;3527;52.376;8.990;2023-07-09T14:17:46;7.75;;;5.72;;
6973;SDS011;3527;52.376;8.990;2023-07-09T14:20:14;8.65;;;6.15;;
6973;SDS011;3527;52.376;8.990;2023-07-09T14:22:41;8.48;;;5.43;;
6973;SDS011;3527;52.376;8.990;2023-07-09T14:25:31;8.57;;;6.20;;
6973;SDS011;3527;52.376;8.990;2023-07-09T14:27:56;6.47;;;5.38;;
6973;SDS011;3527;52.376;8.990;2023-07-09T14:30:24;8.30;;;5.88;;
6973;SDS011;3527;52.376;8.990;2023-07-09T14:32:55;8.32;;;6.30;;
6973;SDS011;3527;52.376;8.990;2023-07-09T14:35:23;5.78;;;4.75;;
6973;SDS011;3527;52.376;8.990;2023-07-09T14:37:52;7.22;;;5.30;;
6973;SDS011;3527;52.376;8.990;2023-07-09T14:40:21;7.80;;;5.43;;
6973;SDS011;3527;52.376;8.990;2023-07-09T14:42:49;8.05;;;6.03;;
6973;SDS011;3527;52.376;8.990;2023-07-09T14:45:25;7.55;;;5.75;;
6973;SDS011;3527;52.376;8.990;2023-07-09T14:47:56;9.13;;;5.97;;
6973;SDS011;3527;52.376;8.990;2023-07-09T14:50:23;6.60;;;5.82;;
6973;SDS011;3527;52.376;8.990;2023-07-09T14:52:52;9.35;;;5.63;;
6973;SDS011;3527;52.376;8.990;2023-07-09T14:55:20;10.60;;;6.20;;
6973;SDS011;3527;52.376;8.990;2023-07-09T14:57:48;7.13;;;6.07;;
6973;SDS011;3527;52.376;8.990;2023-07-09T15:00:20;7.85;;;6.07;;
6973;SDS011;3527;52.376;8.990;2023-07-09T15:02:49;8.05;;;5.82;;
6973;SDS011;3527;52.376;8.990;2023-07-09T15:05:19;12.10;;;5.85;;
6973;SDS011;3527;52.376;8.990;2023-07-09T15:07:48;10.93;;;6.20;;
6973;SDS011;3527;52.376;8.990;2023-07-09T15:10:17;7.03;;;5.72;;
6973;SDS011;3527;52.376;8.990;2023-07-09T15:12:49;9.55;;;5.72;;
6973;SDS011;3527;52.376;8.990;2023-07-09T15:15:20;7.15;;;5.43;;
6973;SDS011;3527;52.376;8.990;2023-07-09T15:17:51;7.93;;;5.50;;
6973;SDS011;3527;52.376;8.990;2023-07-09T15:20:19;7.57;;;5.80;;
6973;SDS011;3527;52.376;8.990;2023-07-09T15:22:49;8.68;;;6.30;;
6973;SDS011;3527;52.376;8.990;2023-07-09T15:25:22;7.60;;;5.60;;
6973;SDS011;3527;52.376;8.990;2023-07-09T15:27:51;7.38;;;5.30;;
6973;SDS011;3527;52.376;8.990;2023-07-09T15:30:21;7.07;;;5.65;;
6973;SDS011;3527;52.376;8.990;2023-07-09T15:32:50;8.57;;;5.85;;
6973;SDS011;3527;52.376;8.990;2023-07-09T15:35:18;7.75;;;5.75;;
6973;SDS011;3527;52.376;8.990;2023-07-09T15:37:46;7.80;;;5.75;;
6973;SDS011;3527;52.376;8.990;2023-07-09T15:42:47;7.38;;;5.88;;
6973;SDS011;3527;52.376;8.990;2023-07-09T15:45:16;7.63;;;6.22;;
6973;SDS011;3527;52.376;8.990;2023-07-09T15:47:45;10.05;;;6.68;;
6973;SDS011;3527;52.376;8.990;2023-07-09T15:50:31;7.03;;;5.38;;
6973;SDS011;3527;52.376;8.990;2023-07-09T15:53:00;11.18;;;6.38;;
6973;SDS011;3527;52.376;8.990;2023-07-09T15:55:27;7.15;;;5.63;;
6973;SDS011;3527;52.376;8.990;2023-07-09T15:57:54;7.97;;;6.10;;
6973;SDS011;3527;52.376;8.990;2023-07-09T16:00:23;8.25;;;5.70;;
6973;SDS011;3527;52.376;8.990;2023-07-09T16:02:53;8.10;;;6.25;;
6973;SDS011;3527;52.376;8.990;2023-07-09T16:05:41;7.70;;;6.07;;
6973;SDS011;3527;52.376;8.990;2023-07-09T16:08:07;7.63;;;5.75;;
6973;SDS011;3527;52.376;8.990;2023-07-09T16:10:34;7.35;;;6.28;;
6973;SDS011;3527;52.376;8.990;2023-07-09T16:13:01;8.30;;;6.32;;
6973;SDS011;3527;52.376;8.990;2023-07-09T16:15:31;10.75;;;6.65;;
6973;SDS011;3527;52.376;8.990;2023-07-09T16:18:52;6.88;;;6.05;;
6973;SDS011;3527;52.376;8.990;2023-07-09T16:21:32;7.78;;;6.22;;
6973;SDS011;3527;52.376;8.990;2023-07-09T16:23:59;9.90;;;6.47;;
6973;SDS011;3527;52.376;8.990;2023-07-09T16:26:29;8.38;;;6.40;;
6973;SDS011;3527;52.376;8.990;2023-07-09T16:28:56;10.10;;;6.35;;
6973;SDS011;3527;52.376;8.990;2023-07-09T16:31:23;8.30;;;6.13;;
6973;SDS011;3527;52.376;8.990;2023-07-09T16:33:50;8.32;;;6.13;;
6973;SDS011;3527;52.376;8.990;2023-07-09T16:36:17;7.20;;;5.68;;
6973;SDS011;3527;52.376;8.990;2023-07-09T16:38:45;11.18;;;6.60;;
6973;SDS011;3527;52.376;8.990;2023-07-09T16:41:13;8.15;;;6.22;;